createdAt,value
2023-02-13T00:01:05.308Z,5.68
2023-02-13T00:03:31.786Z,5.64
2023-02-13T00:05:58.297Z,5.73
2023-02-13T00:08:24.773Z,5.70
2023-02-13T00:10:51.246Z,5.70
2023-02-13T00:13:17.699Z,5.68
2023-02-13T00:15:44.246Z,5.62
2023-02-13T00:18:10.724Z,5.69
2023-02-13T00:20:37.221Z,5.68
2023-02-13T00:23:03.690Z,5.71
2023-02-13T00:25:30.166Z,5.72
2023-02-13T00:27:56.663Z,5.72
2023-02-13T00:30:23.162Z,5.70
2023-02-13T00:32:49.624Z,5.67
2023-02-13T00:35:16.109Z,5.63
2023-02-13T00:37:42.563Z,5.64
2023-02-13T00:40:09.416Z,5.63
2023-02-13T00:42:35.882Z,5.63
2023-02-13T00:45:02.356Z,5.65
2023-02-13T00:47:28.877Z,5.63
2023-02-13T00:49:55.347Z,5.57
2023-02-13T00:52:21.807Z,5.60
2023-02-13T00:54:48.322Z,5.62
2023-02-13T00:57:14.807Z,5.55
2023-02-13T00:59:41.276Z,5.57
2023-02-13T01:02:07.769Z,5.58
2023-02-13T01:04:34.337Z,5.59
2023-02-13T01:07:00.873Z,5.56
2023-02-13T01:09:27.343Z,5.57
2023-02-13T01:11:53.817Z,5.57
2023-02-13T01:14:20.273Z,5.59
2023-02-13T01:16:47.001Z,5.55
2023-02-13T01:19:13.742Z,5.55
2023-02-13T01:21:40.208Z,5.56
2023-02-13T01:24:06.873Z,5.55
2023-02-13T01:26:33.389Z,5.55
2023-02-13T01:28:59.881Z,5.54
2023-02-13T01:31:26.466Z,5.48
2023-02-13T01:33:52.999Z,5.53
2023-02-13T01:36:19.476Z,5.49
2023-02-13T01:38:45.970Z,5.48
2023-02-13T01:41:12.503Z,5.48
2023-02-13T01:43:50.308Z,5.47
2023-02-13T01:46:23.071Z,5.48
2023-02-13T01:48:49.894Z,5.49
2023-02-13T01:51:19.689Z,5.47
2023-02-13T01:53:53.556Z,5.47
2023-02-13T01:56:59.907Z,5.48
2023-02-13T01:59:29.222Z,5.46
2023-02-13T02:01:55.987Z,5.46
2023-02-13T02:04:25.526Z,5.43
2023-02-13T02:06:53.703Z,5.46
2023-02-13T02:09:22.353Z,5.48
2023-02-13T02:12:10.138Z,5.49
2023-02-13T02:14:36.632Z,5.50
2023-02-13T02:17:03.087Z,5.55
2023-02-13T02:19:43.474Z,5.56
2023-02-13T02:22:16.707Z,5.50
2023-02-13T02:25:11.005Z,5.51
2023-02-13T02:27:37.306Z,5.44
2023-02-13T02:30:19.275Z,5.52
2023-02-13T02:32:54.860Z,5.42
2023-02-13T02:35:40.037Z,5.39
2023-02-13T02:38:33.130Z,5.36
2023-02-13T02:41:11.631Z,5.38
2023-02-13T02:44:05.497Z,5.38
2023-02-13T02:46:36.192Z,5.32
2023-02-13T02:49:30.436Z,5.32
2023-02-13T02:52:02.868Z,5.29
2023-02-13T02:55:03.553Z,5.32
2023-02-13T02:57:51.276Z,5.31
2023-02-13T03:00:38.149Z,5.31
2023-02-13T03:03:36.976Z,5.33
2023-02-13T03:06:16.561Z,5.36
2023-02-13T03:09:09.764Z,5.48
2023-02-13T03:11:55.358Z,5.49
2023-02-13T03:14:21.821Z,5.49
2023-02-13T03:17:06.875Z,5.53
2023-02-13T03:20:17.253Z,5.56
2023-02-13T03:22:51.679Z,5.54
2023-02-13T03:25:35.281Z,5.56
2023-02-13T03:28:29.623Z,5.49
2023-02-13T03:31:23.263Z,5.50
2023-02-13T03:34:06.486Z,5.49
2023-02-13T03:37:00.734Z,5.51
2023-02-13T03:39:34.430Z,5.44
2023-02-13T03:42:02.960Z,5.43
2023-02-13T03:45:11.772Z,5.49
2023-02-13T03:47:38.278Z,5.39
2023-02-13T03:50:05.803Z,5.34
2023-02-13T03:52:49.132Z,5.35
2023-02-13T03:55:38.194Z,5.33
2023-02-13T03:58:31.929Z,5.34
2023-02-13T04:00:59.582Z,5.36
2023-02-13T04:03:33.430Z,5.32
2023-02-13T04:06:06.312Z,5.29
2023-02-13T04:08:32.812Z,5.26
2023-02-13T04:11:13.599Z,5.22
2023-02-13T04:13:47.024Z,5.20
2023-02-13T04:16:18.614Z,5.23
2023-02-13T04:18:45.098Z,5.32
2023-02-13T04:21:11.590Z,5.27
2023-02-13T04:23:38.034Z,5.24
2023-02-13T04:26:07.364Z,5.18
2023-02-13T04:28:33.891Z,5.20
2023-02-13T04:31:01.063Z,5.25
2023-02-13T04:33:27.724Z,5.26
2023-02-13T04:35:54.209Z,5.21
2023-02-13T04:38:20.676Z,5.16
2023-02-13T04:40:47.132Z,5.10
2023-02-13T04:43:13.621Z,5.09
2023-02-13T04:45:40.126Z,5.14
2023-02-13T04:48:06.643Z,5.14
2023-02-13T04:50:33.122Z,5.12
2023-02-13T04:52:59.636Z,5.12
2023-02-13T04:55:26.832Z,5.21
2023-02-13T04:57:54.032Z,5.19
2023-02-13T05:00:21.783Z,5.15
2023-02-13T05:02:48.273Z,5.18
2023-02-13T05:05:14.751Z,5.24
2023-02-13T05:07:41.884Z,5.14
2023-02-13T05:10:09.781Z,5.10
2023-02-13T05:12:36.376Z,5.05
2023-02-13T05:15:03.012Z,5.05
2023-02-13T05:17:29.484Z,5.04
2023-02-13T05:19:56.043Z,5.00
2023-02-13T05:22:41.125Z,5.00
2023-02-13T05:25:07.686Z,4.99
2023-02-13T05:27:34.150Z,4.98
2023-02-13T05:30:00.619Z,5.00
2023-02-13T05:32:27.076Z,5.02
2023-02-13T05:34:53.537Z,4.96
2023-02-13T05:37:20.425Z,4.93
2023-02-13T05:39:46.919Z,4.90
2023-02-13T05:42:13.443Z,4.95
2023-02-13T05:44:39.937Z,4.90
2023-02-13T05:47:06.466Z,4.88
2023-02-13T05:49:32.961Z,4.97
2023-02-13T05:51:59.431Z,4.96
2023-02-13T05:54:25.899Z,5.00
2023-02-13T05:56:52.365Z,4.97
2023-02-13T05:59:18.828Z,4.93
2023-02-13T06:01:45.368Z,4.92
2023-02-13T06:04:11.909Z,4.94
2023-02-13T06:06:38.427Z,4.83
2023-02-13T06:09:05.256Z,4.80
2023-02-13T06:11:31.968Z,4.84
2023-02-13T06:13:58.432Z,4.82
2023-02-13T06:16:24.974Z,4.89
2023-02-13T06:18:51.597Z,5.01
2023-02-13T06:21:18.329Z,4.86
2023-02-13T06:23:44.889Z,4.86
2023-02-13T06:26:11.415Z,4.84
2023-02-13T06:28:37.945Z,4.78
2023-02-13T06:31:04.653Z,4.77
2023-02-13T06:33:31.248Z,4.76
2023-02-13T06:35:57.755Z,4.69
2023-02-13T06:38:24.375Z,4.68
2023-02-13T06:40:51.097Z,4.64
2023-02-13T06:43:17.828Z,4.56
2023-02-13T06:45:44.367Z,4.65
2023-02-13T06:48:10.830Z,4.62
2023-02-13T06:50:37.386Z,4.63
2023-02-13T06:53:03.862Z,4.66
2023-02-13T06:55:30.329Z,4.57
2023-02-13T06:57:56.790Z,4.53
2023-02-13T07:00:25.641Z,4.51
2023-02-13T07:02:52.727Z,4.48
2023-02-13T07:05:19.321Z,4.51
2023-02-13T07:07:45.832Z,4.49
2023-02-13T07:10:13.187Z,4.50
2023-02-13T07:12:39.648Z,4.53
2023-02-13T07:15:06.328Z,4.51
2023-02-13T07:17:33.953Z,4.48
2023-02-13T07:20:00.446Z,4.45
2023-02-13T07:22:26.962Z,4.41
2023-02-13T07:24:53.517Z,4.43
2023-02-13T07:27:20.063Z,4.50
2023-02-13T07:29:46.519Z,4.44
2023-02-13T07:32:13.134Z,4.55
2023-02-13T07:34:44.447Z,4.53
2023-02-13T07:37:15.740Z,4.49
2023-02-13T07:39:42.198Z,4.50
2023-02-13T07:42:08.681Z,4.48
2023-02-13T07:44:35.148Z,4.53
2023-02-13T07:47:01.708Z,4.55
2023-02-13T07:49:28.204Z,4.53
2023-02-13T07:51:56.605Z,4.43
2023-02-13T07:54:23.082Z,4.48
2023-02-13T07:56:49.573Z,4.53
2023-02-13T07:59:16.035Z,4.51
2023-02-13T08:01:42.642Z,4.56
2023-02-13T08:04:09.153Z,4.53
2023-02-13T08:06:35.679Z,4.52
2023-02-13T08:09:20.716Z,4.60
2023-02-13T08:11:56.204Z,4.59
2023-02-13T08:14:23.375Z,4.55
2023-02-13T08:16:50.061Z,4.62
2023-02-13T08:19:16.536Z,4.61
2023-02-13T08:21:43.125Z,4.61
2023-02-13T08:24:09.694Z,4.65
2023-02-13T08:26:36.271Z,4.66
2023-02-13T08:29:02.740Z,4.75
2023-02-13T08:31:29.292Z,4.72
2023-02-13T08:33:57.410Z,4.75
2023-02-13T08:36:24.503Z,4.74
2023-02-13T08:38:51.233Z,4.73
2023-02-13T08:41:23.813Z,4.77
2023-02-13T08:43:50.370Z,4.73
2023-02-13T08:46:17.683Z,4.80
2023-02-13T08:48:44.226Z,4.79
2023-02-13T08:51:11.920Z,4.75
2023-02-13T08:53:38.641Z,4.83
2023-02-13T08:56:05.384Z,4.90
2023-02-13T08:58:31.896Z,4.88
2023-02-13T09:00:58.421Z,4.93
2023-02-13T09:03:24.930Z,4.97
2023-02-13T09:05:51.403Z,4.95
2023-02-13T09:08:18.818Z,4.97
2023-02-13T09:10:45.560Z,4.93
2023-02-13T09:13:12.136Z,5.06
2023-02-13T09:15:40.538Z,5.08
2023-02-13T09:18:07.474Z,5.11
2023-02-13T09:20:35.747Z,5.05
2023-02-13T09:23:02.522Z,5.10
2023-02-13T09:25:28.988Z,5.04
2023-02-13T09:27:55.475Z,5.05
2023-02-13T09:30:24.886Z,5.13
2023-02-13T09:32:52.341Z,5.17
2023-02-13T09:35:19.313Z,5.13
2023-02-13T09:37:45.892Z,4.89
2023-02-13T09:40:28.025Z,4.98
2023-02-13T09:42:57.438Z,5.07
2023-02-13T09:45:23.936Z,5.11
2023-02-13T09:47:50.425Z,5.12
2023-02-13T09:50:29.256Z,5.18
2023-02-13T09:52:56.590Z,5.27
2023-02-13T09:55:29.884Z,5.31
2023-02-13T09:58:08.743Z,5.29
2023-02-13T10:00:39.416Z,5.16
2023-02-13T10:03:22.051Z,5.24
2023-02-13T10:06:12.760Z,5.21
2023-02-13T10:08:52.494Z,5.28
2023-02-13T10:11:46.968Z,5.30
2023-02-13T10:14:32.930Z,5.28
2023-02-13T10:17:05.861Z,5.32
2023-02-13T10:19:48.143Z,5.38
2023-02-13T10:22:31.148Z,5.43
2023-02-13T10:25:01.272Z,5.45
2023-02-13T10:28:07.440Z,5.43
2023-02-13T10:30:37.024Z,5.42
2023-02-13T10:33:18.591Z,5.42
2023-02-13T10:36:02.751Z,5.46
2023-02-13T10:38:33.537Z,5.43
2023-02-13T10:41:23.148Z,5.47
2023-02-13T10:44:10.835Z,5.39
2023-02-13T10:46:58.823Z,5.42
2023-02-13T10:49:34.319Z,5.41
2023-02-13T10:52:20.046Z,5.45
2023-02-13T10:55:02.508Z,5.51
2023-02-13T10:57:43.044Z,5.47
2023-02-13T11:00:20.665Z,5.50
2023-02-13T11:02:47.145Z,5.45
2023-02-13T11:05:22.118Z,5.42
2023-02-13T11:07:48.628Z,5.69
2023-02-13T11:10:23.285Z,5.56
2023-02-13T11:12:49.906Z,5.52
2023-02-13T11:15:32.350Z,5.56
2023-02-13T11:18:13.153Z,5.65
2023-02-13T11:20:44.397Z,5.69
2023-02-13T11:23:29.484Z,5.70
2023-02-13T11:26:04.900Z,5.70
2023-02-13T11:28:32.804Z,5.81
2023-02-13T11:31:12.836Z,5.89
2023-02-13T11:33:39.378Z,6.04
2023-02-13T11:36:13.447Z,5.96
2023-02-13T11:38:39.949Z,6.04
2023-02-13T11:41:12.938Z,6.12
2023-02-13T11:43:50.567Z,6.17
2023-02-13T11:46:22.653Z,6.21
2023-02-13T11:49:04.928Z,6.18
2023-02-13T11:51:36.297Z,6.22
2023-02-13T11:54:03.109Z,6.25
2023-02-13T11:56:29.575Z,6.21
2023-02-13T11:59:01.891Z,6.30
2023-02-13T12:01:29.097Z,6.37
2023-02-13T12:04:07.545Z,6.40
2023-02-13T12:06:39.652Z,6.22
2023-02-13T12:09:12.226Z,6.30
2023-02-13T12:11:46.698Z,6.34
2023-02-13T12:14:18.294Z,6.44
2023-02-13T12:17:01.140Z,6.35
2023-02-13T12:19:35.422Z,6.50
2023-02-13T12:22:40.564Z,6.64
2023-02-13T12:25:15.787Z,6.48
2023-02-13T12:27:45.129Z,6.50
2023-02-13T12:30:24.801Z,6.50
2023-02-13T12:33:18.804Z,6.61
2023-02-13T12:36:02.346Z,6.68
2023-02-13T12:38:41.978Z,6.60
2023-02-13T12:41:21.308Z,6.37
2023-02-13T12:44:14.538Z,6.41
2023-02-13T12:47:12.673Z,6.51
2023-02-13T12:50:07.187Z,6.38
2023-02-13T12:52:37.906Z,6.47
2023-02-13T12:55:19.443Z,6.42
2023-02-13T12:58:15.218Z,6.52
2023-02-13T13:01:03.526Z,6.71
2023-02-13T13:03:59.464Z,6.80
2023-02-13T13:06:55.569Z,6.86
2023-02-13T13:09:47.105Z,6.81
2023-02-13T13:12:18.632Z,6.90
2023-02-13T13:14:56.560Z,7.00
2023-02-13T13:17:41.914Z,7.05
2023-02-13T13:20:30.346Z,7.12
2023-02-13T13:22:59.985Z,7.17
2023-02-13T13:25:32.233Z,7.27
2023-02-13T13:28:04.355Z,7.02
2023-02-13T13:30:35.353Z,7.13
2023-02-13T13:33:18.182Z,7.14
2023-02-13T13:35:54.000Z,7.14
2023-02-13T13:38:41.244Z,7.16
2023-02-13T13:41:25.019Z,7.18
2023-02-13T13:44:03.721Z,7.26
2023-02-13T13:46:55.219Z,7.02
2023-02-13T13:49:38.065Z,7.15
2023-02-13T13:52:26.942Z,7.23
2023-02-13T13:54:53.826Z,7.35
2023-02-13T13:57:27.127Z,7.55
2023-02-13T13:59:58.957Z,7.62
2023-02-13T14:02:25.262Z,7.75
2023-02-13T14:05:18.590Z,7.46
2023-02-13T14:07:45.227Z,7.47
2023-02-13T14:10:20.891Z,7.34
2023-02-13T14:12:48.942Z,7.34
2023-02-13T14:15:33.833Z,6.92
2023-02-13T14:18:11.904Z,7.08
2023-02-13T14:20:41.318Z,7.28
2023-02-13T14:23:13.760Z,7.43
2023-02-13T14:25:40.216Z,7.42
2023-02-13T14:28:06.683Z,7.43
2023-02-13T14:30:36.669Z,7.56
2023-02-13T14:33:05.942Z,7.65
2023-02-13T14:35:37.324Z,7.50
2023-02-13T14:38:05.495Z,7.53
2023-02-13T14:40:48.750Z,7.57
2023-02-13T14:43:35.495Z,7.60
2023-02-13T14:46:07.860Z,7.63
2023-02-13T14:48:43.163Z,7.53
2023-02-13T14:51:28.510Z,7.32
2023-02-13T14:53:58.947Z,7.36
2023-02-13T14:56:25.420Z,7.41
2023-02-13T14:59:10.098Z,7.50
2023-02-13T15:01:42.694Z,7.35
2023-02-13T15:04:13.140Z,7.27
2023-02-13T15:06:40.974Z,7.21
2023-02-13T15:09:17.736Z,7.24
2023-02-13T15:11:44.297Z,7.23
2023-02-13T15:14:21.479Z,7.24
2023-02-13T15:16:51.546Z,7.14
2023-02-13T15:19:18.935Z,7.03
2023-02-13T15:22:00.714Z,6.85
2023-02-13T15:24:29.158Z,6.81
2023-02-13T15:27:04.147Z,6.74
2023-02-13T15:29:40.901Z,6.64
2023-02-13T15:32:19.942Z,6.49
2023-02-13T15:34:47.291Z,6.33
2023-02-13T15:37:23.836Z,6.10
2023-02-13T15:39:50.343Z,5.99
2023-02-13T15:42:16.818Z,5.90
2023-02-13T15:44:45.191Z,5.82
2023-02-13T15:47:28.529Z,5.74
2023-02-13T15:49:55.033Z,5.74
2023-02-13T15:52:35.152Z,5.57
2023-02-13T15:55:01.778Z,5.50
2023-02-13T15:57:28.550Z,5.24
2023-02-13T15:59:55.541Z,5.20
2023-02-13T16:02:46.194Z,5.08
2023-02-13T16:05:13.205Z,4.98
2023-02-13T16:08:24.829Z,4.67
2023-02-13T16:10:51.305Z,4.64
2023-02-13T16:13:18.083Z,4.63
2023-02-13T16:15:44.552Z,4.42
2023-02-13T16:18:19.665Z,4.39
2023-02-13T16:20:46.193Z,4.31
2023-02-13T16:23:19.964Z,4.48
2023-02-13T16:25:46.446Z,4.38
2023-02-13T16:28:23.741Z,4.38
2023-02-13T16:31:00.223Z,4.27
2023-02-13T16:33:30.687Z,4.15
2023-02-13T16:35:57.793Z,4.02
2023-02-13T16:38:25.273Z,4.04
2023-02-13T16:40:52.008Z,4.07
2023-02-13T16:43:38.857Z,4.21
2023-02-13T16:46:24.357Z,4.22
2023-02-13T16:48:56.995Z,4.20
2023-02-13T16:51:30.332Z,4.18
2023-02-13T16:53:58.485Z,4.09
2023-02-13T16:56:24.945Z,4.11
2023-02-13T16:59:04.049Z,4.04
2023-02-13T17:01:30.557Z,3.98
2023-02-13T17:03:57.077Z,3.83
2023-02-13T17:06:24.769Z,3.80
2023-02-13T17:08:52.807Z,3.64
2023-02-13T17:11:19.799Z,3.72
2023-02-13T17:13:46.261Z,3.55
2023-02-13T17:16:16.087Z,3.53
2023-02-13T17:18:42.565Z,3.51
2023-02-13T17:21:09.069Z,3.39
2023-02-13T17:23:35.534Z,3.36
2023-02-13T17:26:02.022Z,3.34
2023-02-13T17:28:30.263Z,3.42
2023-02-13T17:30:57.607Z,3.45
2023-02-13T17:33:26.011Z,3.36
2023-02-13T17:35:52.745Z,3.38
2023-02-13T17:38:19.332Z,3.36
2023-02-13T17:40:45.803Z,3.39
2023-02-13T17:43:13.278Z,3.40
2023-02-13T17:45:39.894Z,3.34
2023-02-13T17:48:06.396Z,3.17
2023-02-13T17:50:33.154Z,3.04
2023-02-13T17:53:02.180Z,2.85
2023-02-13T17:55:29.518Z,2.93
2023-02-13T17:57:56.979Z,3.00
2023-02-13T18:00:24.805Z,3.06
2023-02-13T18:02:51.402Z,3.07
2023-02-13T18:05:18.512Z,3.40
2023-02-13T18:07:45.318Z,3.53
2023-02-13T18:10:16.919Z,3.22
2023-02-13T18:12:43.451Z,2.98
2023-02-13T18:15:10.211Z,3.05
2023-02-13T18:17:36.825Z,3.10
2023-02-13T18:20:04.843Z,3.04
2023-02-13T18:22:31.319Z,3.04
2023-02-13T18:24:57.784Z,3.13
2023-02-13T18:27:26.282Z,3.17
2023-02-13T18:29:56.236Z,2.98
2023-02-13T18:32:22.948Z,3.03
2023-02-13T18:34:50.155Z,3.05
2023-02-13T18:37:17.210Z,3.03
2023-02-13T18:39:43.711Z,2.98
2023-02-13T18:42:11.458Z,2.80
2023-02-13T18:44:37.953Z,2.73
2023-02-13T18:47:04.459Z,2.81
2023-02-13T18:49:31.175Z,2.85
2023-02-13T18:51:57.772Z,2.76
2023-02-13T18:54:24.257Z,2.61
2023-02-13T18:56:50.815Z,2.60
2023-02-13T18:59:18.544Z,2.86
2023-02-13T19:01:45.501Z,2.84
2023-02-13T19:04:12.260Z,3.18
2023-02-13T19:06:39.090Z,3.17
2023-02-13T19:09:05.558Z,3.29
2023-02-13T19:11:34.172Z,3.30
2023-02-13T19:14:01.306Z,3.28
2023-02-13T19:16:28.772Z,3.18
2023-02-13T19:18:56.113Z,2.99
2023-02-13T19:21:24.196Z,2.95
2023-02-13T19:23:50.848Z,2.66
2023-02-13T19:26:18.981Z,2.59
2023-02-13T19:28:45.516Z,2.50
2023-02-13T19:31:15.021Z,2.35
2023-02-13T19:33:41.840Z,2.33
2023-02-13T19:36:11.787Z,2.31
2023-02-13T19:38:39.194Z,2.32
2023-02-13T19:41:06.790Z,2.33
2023-02-13T19:43:33.268Z,2.46
2023-02-13T19:46:04.956Z,2.47
2023-02-13T19:48:31.970Z,2.29
2023-02-13T19:50:58.821Z,2.32
2023-02-13T19:53:25.588Z,2.53
2023-02-13T19:55:59.054Z,2.34
2023-02-13T19:58:25.842Z,2.32
2023-02-13T20:01:16.596Z,2.85
2023-02-13T20:03:43.457Z,3.06
2023-02-13T20:06:14.519Z,2.90
2023-02-13T20:08:42.957Z,2.78
2023-02-13T20:11:11.010Z,2.52
2023-02-13T20:13:37.535Z,2.39
2023-02-13T20:16:05.613Z,2.28
2023-02-13T20:18:32.639Z,2.14
2023-02-13T20:20:59.777Z,2.20
2023-02-13T20:23:26.455Z,2.21
2023-02-13T20:25:52.906Z,2.35
2023-02-13T20:28:19.378Z,2.39
2023-02-13T20:30:45.945Z,2.43
2023-02-13T20:33:12.546Z,2.49
2023-02-13T20:35:39.074Z,2.73
2023-02-13T20:38:05.533Z,2.81
2023-02-13T20:40:32.044Z,2.74
2023-02-13T20:42:58.510Z,3.00
2023-02-13T20:45:25.010Z,2.92
2023-02-13T20:47:51.537Z,2.99
2023-02-13T20:50:18.100Z,3.08
2023-02-13T20:52:44.570Z,3.08
2023-02-13T20:55:11.133Z,2.96
2023-02-13T20:57:37.862Z,3.12
2023-02-13T21:00:04.655Z,3.45
2023-02-13T21:02:31.137Z,4.07
2023-02-13T21:04:57.615Z,4.15
2023-02-13T21:07:24.144Z,4.20
2023-02-13T21:09:50.675Z,4.33
2023-02-13T21:12:17.224Z,4.78
2023-02-13T21:14:43.678Z,4.87
2023-02-13T21:17:10.153Z,4.87
2023-02-13T21:19:36.622Z,4.68
2023-02-13T21:22:12.101Z,4.73
2023-02-13T21:24:42.271Z,4.44
2023-02-13T21:27:08.702Z,4.13
2023-02-13T21:29:36.193Z,3.80
2023-02-13T21:32:02.810Z,3.62
2023-02-13T21:34:29.324Z,3.57
2023-02-13T21:36:55.825Z,3.51
2023-02-13T21:39:22.294Z,3.16
2023-02-13T21:41:48.856Z,3.11
2023-02-13T21:44:15.875Z,3.11
2023-02-13T21:46:42.764Z,3.12
2023-02-13T21:49:12.273Z,3.20
2023-02-13T21:51:38.760Z,3.07
2023-02-13T21:54:05.352Z,2.83
2023-02-13T21:56:33.531Z,3.46
2023-02-13T21:59:00.098Z,3.81
2023-02-13T22:01:30.788Z,4.33
2023-02-13T22:04:01.387Z,4.36
2023-02-13T22:06:28.725Z,4.72
2023-02-13T22:09:03.885Z,4.87
2023-02-13T22:11:30.427Z,4.56
2023-02-13T22:14:00.042Z,4.66
2023-02-13T22:16:26.635Z,4.90
2023-02-13T22:18:53.232Z,4.99
2023-02-13T22:21:21.170Z,4.94
2023-02-13T22:23:47.818Z,4.96
2023-02-13T22:26:22.159Z,5.01
2023-02-13T22:28:48.985Z,4.95
2023-02-13T22:31:15.905Z,5.03
2023-02-13T22:33:42.980Z,5.10
2023-02-13T22:36:11.897Z,4.97
2023-02-13T22:38:38.736Z,4.92
2023-02-13T22:41:09.307Z,5.17
2023-02-13T22:43:35.867Z,5.25
2023-02-13T22:46:06.886Z,5.05
2023-02-13T22:48:35.123Z,5.18
2023-02-13T22:51:03.462Z,5.12
2023-02-13T22:53:29.932Z,5.20
2023-02-13T22:55:56.433Z,5.35
2023-02-13T22:58:22.914Z,5.07
2023-02-13T23:00:49.410Z,5.04
2023-02-13T23:03:15.911Z,4.99
2023-02-13T23:05:42.392Z,5.22
2023-02-13T23:08:09.263Z,5.13
2023-02-13T23:10:35.730Z,5.12
2023-02-13T23:13:02.214Z,4.86
2023-02-13T23:15:28.763Z,5.05
2023-02-13T23:18:13.401Z,4.67
2023-02-13T23:20:42.981Z,4.32
2023-02-13T23:23:09.585Z,4.10
2023-02-13T23:25:36.537Z,3.99
2023-02-13T23:28:03.073Z,3.80
2023-02-13T23:30:30.110Z,3.63
2023-02-13T23:32:57.525Z,3.53
2023-02-13T23:35:24.002Z,3.33
2023-02-13T23:37:50.493Z,3.25
2023-02-13T23:40:17.014Z,3.15
2023-02-13T23:42:43.579Z,3.08
2023-02-13T23:45:10.575Z,2.90
2023-02-13T23:47:37.356Z,2.73
2023-02-13T23:50:05.085Z,2.65
2023-02-13T23:52:31.635Z,2.66
2023-02-13T23:54:58.119Z,2.68
2023-02-13T23:57:24.653Z,2.59
2023-02-13T23:59:51.409Z,2.69
